Time;durP1;ratioP1;P1;durP2;ratioP2;P2;SDS_P1;SDS_P2;PMS_P1;PMS_P2;Temp;Humidity;BMP_temperature;BMP_pressure;BME280_temperature;BME280_humidity;BME280_pressure;Samples;Min_cycle;Max_cycle;Signal;HPM_P1;HPM_P2
2023/05/06 00:01:46;;;;;;;6.25;3.97;;;;;;;;;;5034331;28;20397;-54
2023/05/06 00:04:11;;;;;;;4.22;3.85;;;;;;;;;;5034021;28;20056;-54
2023/05/06 00:06:37;;;;;;;4.32;3.75;;;;;;;;;;5034171;28;20037;-54
2023/05/06 00:09:03;;;;;;;4.38;3.97;;;;;;;;;;5034454;28;20103;-54
2023/05/06 00:11:28;;;;;;;5.85;4.00;;;;;;;;;;5033925;28;20165;-54
2023/05/06 00:13:53;;;;;;;5.00;4.03;;;;;;;;;;5033871;28;20041;-54
2023/05/06 00:16:19;;;;;;;5.18;3.65;;;;;;;;;;5033975;28;20017;-54
2023/05/06 00:18:44;;;;;;;4.68;4.25;;;;;;;;;;5033524;28;20013;-54
2023/05/06 00:21:10;;;;;;;4.22;3.60;;;;;;;;;;5033336;28;20495;-54
2023/05/06 00:23:35;;;;;;;5.22;3.90;;;;;;;;;;5034613;28;20044;-54
2023/05/06 00:26:01;;;;;;;5.85;3.67;;;;;;;;;;5037823;28;20061;-54
2023/05/06 00:28:26;;;;;;;4.20;3.80;;;;;;;;;;5018103;28;20038;-54
2023/05/06 00:30:51;;;;;;;4.25;3.85;;;;;;;;;;5018126;28;20025;-54
2023/05/06 00:33:17;;;;;;;5.53;4.13;;;;;;;;;;5037063;28;20038;-54
2023/05/06 00:35:42;;;;;;;4.20;3.85;;;;;;;;;;5037971;28;20028;-55
2023/05/06 00:38:14;;;;;;;5.40;4.10;;;;;;;;;;5027733;28;20022;-55
2023/05/06 00:40:41;;;;;;;4.55;4.05;;;;;;;;;;5017723;28;20026;-55
2023/05/06 00:43:06;;;;;;;4.60;4.20;;;;;;;;;;4999853;28;20034;-55
2023/05/06 00:45:32;;;;;;;4.60;3.90;;;;;;;;;;5017512;28;20037;-55
2023/05/06 00:47:58;;;;;;;5.72;4.10;;;;;;;;;;4999910;28;20060;-55
2023/05/06 00:50:24;;;;;;;8.27;4.22;;;;;;;;;;5000236;28;20522;-55
2023/05/06 00:52:50;;;;;;;4.32;3.63;;;;;;;;;;5000579;28;20049;-55
2023/05/06 00:55:15;;;;;;;4.78;4.05;;;;;;;;;;5000330;28;20026;-55
2023/05/06 00:57:41;;;;;;;5.40;3.78;;;;;;;;;;5018101;28;20014;-55
2023/05/06 01:00:06;;;;;;;6.03;3.78;;;;;;;;;;5017605;28;20021;-55
2023/05/06 01:02:32;;;;;;;5.32;3.67;;;;;;;;;;5017212;28;20080;-56
2023/05/06 01:04:58;;;;;;;4.13;3.80;;;;;;;;;;5017516;28;20533;-55
2023/05/06 01:07:23;;;;;;;4.10;3.70;;;;;;;;;;5017768;28;20369;-55
2023/05/06 01:09:59;;;;;;;4.05;3.65;;;;;;;;;;5017401;28;20036;-55
2023/05/06 01:12:45;;;;;;;12.38;4.18;;;;;;;;;;5017610;28;20033;-55
2023/05/06 01:15:13;;;;;;;4.53;3.47;;;;;;;;;;5017277;28;20048;-55
2023/05/06 01:17:41;;;;;;;4.55;3.50;;;;;;;;;;4999698;28;20477;-55
2023/05/06 01:20:09;;;;;;;4.50;4.10;;;;;;;;;;5017113;28;20026;-55
2023/05/06 01:22:35;;;;;;;6.20;3.80;;;;;;;;;;5017365;28;20033;-55
2023/05/06 01:25:01;;;;;;;4.70;3.58;;;;;;;;;;5017091;28;20037;-55
2023/05/06 01:27:26;;;;;;;4.40;3.90;;;;;;;;;;5017125;28;20041;-55
2023/05/06 01:29:52;;;;;;;4.10;3.58;;;;;;;;;;5017096;28;20021;-55
2023/05/06 01:32:42;;;;;;;4.15;3.67;;;;;;;;;;5017109;28;20495;-55
2023/05/06 01:35:17;;;;;;;4.85;3.72;;;;;;;;;;4999446;28;20022;-55
2023/05/06 01:37:56;;;;;;;3.95;3.55;;;;;;;;;;4999429;28;20048;-55
2023/05/06 01:40:23;;;;;;;4.27;3.50;;;;;;;;;;5017113;28;20041;-55
2023/05/06 01:42:50;;;;;;;3.75;3.45;;;;;;;;;;5017043;28;20753;-55
2023/05/06 01:45:16;;;;;;;4.05;3.75;;;;;;;;;;5016925;28;20037;-55
2023/05/06 01:47:43;;;;;;;6.82;5.50;;;;;;;;;;5016741;28;20114;-55
2023/05/06 01:50:09;;;;;;;4.00;3.60;;;;;;;;;;5016642;28;20050;-55
2023/05/06 01:52:34;;;;;;;4.65;3.70;;;;;;;;;;5016670;28;20041;-55
2023/05/06 01:54:59;;;;;;;3.28;3.08;;;;;;;;;;5016568;28;20061;-55
2023/05/06 01:57:25;;;;;;;3.90;3.60;;;;;;;;;;5016491;28;20022;-55
2023/05/06 01:59:51;;;;;;;4.22;3.83;;;;;;;;;;5016750;28;20034;-55
2023/05/06 02:02:16;;;;;;;3.40;3.20;;;;;;;;;;5016517;28;20366;-55
2023/05/06 02:04:42;;;;;;;6.63;3.33;;;;;;;;;;4998940;28;20365;-55
2023/05/06 02:07:07;;;;;;;3.97;3.67;;;;;;;;;;4982374;28;20034;-55
2023/05/06 02:09:33;;;;;;;3.67;3.25;;;;;;;;;;5016284;28;20033;-55
2023/05/06 02:12:00;;;;;;;3.83;3.53;;;;;;;;;;4999161;28;20025;-55
2023/05/06 02:14:26;;;;;;;3.90;3.50;;;;;;;;;;4998283;28;20029;-55
2023/05/06 02:16:52;;;;;;;3.92;3.63;;;;;;;;;;4998996;28;20018;-54
2023/05/06 02:19:19;;;;;;;4.00;3.70;;;;;;;;;;4999087;28;20030;-55
2023/05/06 02:21:44;;;;;;;5.82;3.67;;;;;;;;;;4998207;28;20036;-55
2023/05/06 02:24:09;;;;;;;4.82;3.70;;;;;;;;;;4998125;28;20038;-55
2023/05/06 02:26:35;;;;;;;4.25;3.45;;;;;;;;;;5015967;28;20029;-55
2023/05/06 02:29:02;;;;;;;4.45;3.35;;;;;;;;;;4998419;28;20038;-54
2023/05/06 02:31:29;;;;;;;4.32;3.83;;;;;;;;;;5015736;28;20034;-54
2023/05/06 02:33:55;;;;;;;4.38;3.78;;;;;;;;;;5016149;28;20080;-54
2023/05/06 02:36:21;;;;;;;3.70;3.40;;;;;;;;;;5015802;28;20033;-55
2023/05/06 02:38:46;;;;;;;3.70;3.20;;;;;;;;;;5015691;28;20506;-55
2023/05/06 02:41:11;;;;;;;4.32;3.53;;;;;;;;;;5015602;28;20068;-55
2023/05/06 02:43:37;;;;;;;5.15;4.43;;;;;;;;;;5015891;28;20034;-55
2023/05/06 02:46:03;;;;;;;5.40;3.70;;;;;;;;;;5015645;28;20117;-55
2023/05/06 02:48:28;;;;;;;5.35;4.72;;;;;;;;;;5014959;28;20034;-55
2023/05/06 02:50:54;;;;;;;4.50;4.10;;;;;;;;;;4997553;28;20485;-55
2023/05/06 02:53:19;;;;;;;4.43;4.03;;;;;;;;;;5015888;28;20070;-55
2023/05/06 02:55:45;;;;;;;4.30;3.92;;;;;;;;;;5015197;28;20030;-55
2023/05/06 02:58:10;;;;;;;4.78;4.20;;;;;;;;;;5015762;28;20061;-55
2023/05/06 03:00:36;;;;;;;5.68;4.95;;;;;;;;;;5015611;28;20022;-55
2023/05/06 03:03:01;;;;;;;6.97;4.72;;;;;;;;;;4997366;28;20034;-55
2023/05/06 03:05:26;;;;;;;5.43;4.85;;;;;;;;;;4997706;28;20029;-56
2023/05/06 03:07:52;;;;;;;6.57;5.88;;;;;;;;;;5015410;28;20345;-55
2023/05/06 03:10:17;;;;;;;7.60;5.78;;;;;;;;;;4997273;28;20068;-55
2023/05/06 03:12:44;;;;;;;7.57;5.30;;;;;;;;;;4997900;28;20088;-56
2023/05/06 03:15:09;;;;;;;7.30;5.38;;;;;;;;;;5015361;28;20033;-56
2023/05/06 03:17:36;;;;;;;5.95;4.70;;;;;;;;;;4997840;28;20483;-55
2023/05/06 03:20:04;;;;;;;4.28;3.88;;;;;;;;;;4997063;28;20022;-55
2023/05/06 03:22:30;;;;;;;4.65;4.35;;;;;;;;;;4997758;28;20041;-55
2023/05/06 03:24:56;;;;;;;6.82;5.20;;;;;;;;;;4997039;28;20025;-55
2023/05/06 03:27:21;;;;;;;6.00;5.40;;;;;;;;;;4997635;28;20026;-55
2023/05/06 03:29:51;;;;;;;6.15;5.10;;;;;;;;;;4997505;28;20037;-55
2023/05/06 03:32:18;;;;;;;4.50;3.97;;;;;;;;;;4997287;28;20036;-55
2023/05/06 03:34:43;;;;;;;6.72;4.50;;;;;;;;;;5014728;28;20332;-55
2023/05/06 03:37:13;;;;;;;4.50;4.10;;;;;;;;;;4997765;28;20532;-55
2023/05/06 03:39:44;;;;;;;4.35;3.92;;;;;;;;;;4997009;28;20464;-55
2023/05/06 03:42:10;;;;;;;4.25;3.72;;;;;;;;;;4997003;28;20034;-55
2023/05/06 03:44:35;;;;;;;3.70;3.40;;;;;;;;;;4996694;28;20447;-55
2023/05/06 03:47:01;;;;;;;3.70;3.40;;;;;;;;;;4996625;28;20054;-55
2023/05/06 03:49:29;;;;;;;4.57;4.10;;;;;;;;;;4996846;28;20030;-56
2023/05/06 03:51:55;;;;;;;3.40;3.13;;;;;;;;;;5014126;28;20556;-55
2023/05/06 03:54:22;;;;;;;3.15;2.95;;;;;;;;;;4997069;28;20057;-56
2023/05/06 03:56:48;;;;;;;4.10;3.10;;;;;;;;;;4996408;28;20413;-55
2023/05/06 03:59:14;;;;;;;3.95;3.60;;;;;;;;;;4996307;28;20535;-55
2023/05/06 04:01:40;;;;;;;3.85;3.53;;;;;;;;;;4996478;28;20109;-55
2023/05/06 04:04:07;;;;;;;4.28;3.88;;;;;;;;;;4997237;28;20049;-55
2023/05/06 04:06:32;;;;;;;4.45;3.80;;;;;;;;;;5014184;28;20080;-55
2023/05/06 04:08:57;;;;;;;3.95;3.30;;;;;;;;;;5014308;28;20121;-55
2023/05/06 04:11:24;;;;;;;5.57;3.90;;;;;;;;;;4996751;28;20464;-55
2023/05/06 04:13:49;;;;;;;5.13;3.83;;;;;;;;;;4997065;28;20042;-55
2023/05/06 04:16:18;;;;;;;4.10;3.58;;;;;;;;;;4996734;28;20128;-55
2023/05/06 04:18:44;;;;;;;5.63;3.33;;;;;;;;;;4996305;28;20053;-55
2023/05/06 04:21:13;;;;;;;3.90;3.47;;;;;;;;;;4996637;28;20333;-55
2023/05/06 04:23:41;;;;;;;4.72;3.63;;;;;;;;;;4996192;28;20387;-55
2023/05/06 04:26:08;;;;;;;3.72;3.40;;;;;;;;;;4996467;28;20108;-55
2023/05/06 04:28:35;;;;;;;5.55;3.40;;;;;;;;;;4996136;28;20503;-55
2023/05/06 04:31:01;;;;;;;3.95;3.55;;;;;;;;;;4996930;28;20379;-55
2023/05/06 04:33:37;;;;;;;3.97;3.50;;;;;;;;;;4995876;28;20045;-55
2023/05/06 04:36:07;;;;;;;4.10;3.65;;;;;;;;;;4996421;28;20030;-55
2023/05/06 04:38:36;;;;;;;3.58;3.20;;;;;;;;;;4996574;28;20026;-55
2023/05/06 04:41:02;;;;;;;4.35;3.75;;;;;;;;;;4996195;28;20495;-55
2023/05/06 04:43:28;;;;;;;4.03;3.33;;;;;;;;;;5013893;28;20053;-55
2023/05/06 04:46:00;;;;;;;7.07;4.53;;;;;;;;;;4996253;28;20069;-55
2023/05/06 04:48:29;;;;;;;4.50;4.10;;;;;;;;;;4995192;28;20053;-55
2023/05/06 04:50:57;;;;;;;4.38;4.00;;;;;;;;;;4995683;28;20042;-55
2023/05/06 04:53:22;;;;;;;3.63;3.13;;;;;;;;;;4996582;28;20133;-55
2023/05/06 04:55:47;;;;;;;4.72;3.70;;;;;;;;;;5013634;28;20034;-55
2023/05/06 04:58:14;;;;;;;6.93;6.32;;;;;;;;;;4996452;28;20133;-55
2023/05/06 05:00:39;;;;;;;6.47;5.88;;;;;;;;;;5013788;28;20109;-55
2023/05/06 05:03:04;;;;;;;5.45;4.50;;;;;;;;;;4996422;28;20061;-55
2023/05/06 05:05:31;;;;;;;3.50;3.30;;;;;;;;;;4995835;28;20113;-55
2023/05/06 05:07:57;;;;;;;4.15;3.17;;;;;;;;;;4995992;28;20018;-55
2023/05/06 05:10:25;;;;;;;4.22;3.13;;;;;;;;;;4997354;28;20026;-55
2023/05/06 05:12:51;;;;;;;3.53;3.22;;;;;;;;;;5000040;28;20133;-55
2023/05/06 05:15:16;;;;;;;3.35;3.15;;;;;;;;;;4999502;28;20097;-55
2023/05/06 05:17:42;;;;;;;5.05;4.07;;;;;;;;;;5000175;28;20026;-55
2023/05/06 05:20:07;;;;;;;6.47;5.57;;;;;;;;;;4999462;28;20022;-55
2023/05/06 05:22:33;;;;;;;4.15;3.85;;;;;;;;;;5017227;28;20026;-56
2023/05/06 05:24:59;;;;;;;3.83;3.40;;;;;;;;;;4999409;28;20396;-55
2023/05/06 05:27:24;;;;;;;6.30;4.88;;;;;;;;;;5017384;28;20157;-54
2023/05/06 05:29:51;;;;;;;4.18;3.67;;;;;;;;;;4999434;28;20044;-54
2023/05/06 05:32:17;;;;;;;5.53;4.93;;;;;;;;;;4999497;28;20018;-55
2023/05/06 05:34:42;;;;;;;5.85;4.82;;;;;;;;;;5016801;28;20112;-55
2023/05/06 05:37:08;;;;;;;6.28;4.75;;;;;;;;;;4999103;28;20354;-55
2023/05/06 05:39:33;;;;;;;4.10;3.70;;;;;;;;;;5017236;28;20076;-55
2023/05/06 05:41:59;;;;;;;5.63;3.80;;;;;;;;;;4999586;28;20471;-55
2023/05/06 05:44:25;;;;;;;6.35;3.60;;;;;;;;;;4999378;28;20120;-55
2023/05/06 05:46:51;;;;;;;8.13;3.80;;;;;;;;;;4999064;28;20038;-56
2023/05/06 05:49:18;;;;;;;7.07;3.90;;;;;;;;;;4999255;28;20052;-55
2023/05/06 05:51:43;;;;;;;3.80;3.50;;;;;;;;;;4998619;28;20464;-55
2023/05/06 05:54:13;;;;;;;3.38;3.17;;;;;;;;;;5016786;28;20038;-55
2023/05/06 05:56:39;;;;;;;4.07;3.60;;;;;;;;;;4999056;28;20452;-55
2023/05/06 05:59:05;;;;;;;4.10;3.63;;;;;;;;;;4998675;28;20068;-56
2023/05/06 06:01:30;;;;;;;4.55;3.28;;;;;;;;;;4998776;28;20075;-55
2023/05/06 06:03:58;;;;;;;3.50;3.25;;;;;;;;;;4998884;28;20022;-55
2023/05/06 06:06:24;;;;;;;4.13;3.53;;;;;;;;;;4999037;28;20033;-56
2023/05/06 06:08:50;;;;;;;4.18;3.30;;;;;;;;;;4998819;28;20491;-55
2023/05/06 06:11:16;;;;;;;3.15;2.85;;;;;;;;;;4998487;28;20034;-56
2023/05/06 06:13:41;;;;;;;5.57;3.75;;;;;;;;;;4982655;28;20108;-54
2023/05/06 06:16:07;;;;;;;3.85;3.40;;;;;;;;;;5015976;28;20626;-53
2023/05/06 06:18:32;;;;;;;3.58;3.28;;;;;;;;;;4998301;28;20379;-54
2023/05/06 06:20:58;;;;;;;4.35;3.80;;;;;;;;;;4998135;28;20485;-54
2023/05/06 06:23:23;;;;;;;3.33;3.08;;;;;;;;;;4997474;28;20030;-54
2023/05/06 06:25:49;;;;;;;4.63;3.13;;;;;;;;;;4998574;28;20052;-54
2023/05/06 06:28:14;;;;;;;3.30;3.10;;;;;;;;;;5016273;28;20049;-54
2023/05/06 06:30:40;;;;;;;3.78;3.40;;;;;;;;;;4998052;28;20014;-54
2023/05/06 06:33:05;;;;;;;4.30;3.75;;;;;;;;;;5015752;28;20029;-54
2023/05/06 06:35:30;;;;;;;3.47;3.17;;;;;;;;;;4997362;28;20026;-54
2023/05/06 06:37:56;;;;;;;6.47;3.15;;;;;;;;;;5015272;28;20025;-54
2023/05/06 06:40:21;;;;;;;3.10;2.90;;;;;;;;;;5015254;28;20075;-54
2023/05/06 06:42:47;;;;;;;3.92;3.03;;;;;;;;;;5014846;28;20038;-54
2023/05/06 06:45:31;;;;;;;3.03;2.78;;;;;;;;;;5015479;28;20037;-54
2023/05/06 06:47:56;;;;;;;3.33;2.83;;;;;;;;;;5015150;28;20026;-54
2023/05/06 06:50:21;;;;;;;3.13;2.92;;;;;;;;;;5014618;28;20419;-54
2023/05/06 06:52:47;;;;;;;5.03;3.30;;;;;;;;;;4997266;28;20084;-54
2023/05/06 06:55:12;;;;;;;7.68;3.55;;;;;;;;;;5014990;28;20034;-54
2023/05/06 06:57:38;;;;;;;3.42;3.13;;;;;;;;;;5014913;28;20048;-54
2023/05/06 07:00:04;;;;;;;4.38;2.92;;;;;;;;;;5014701;28;20018;-54
2023/05/06 07:02:29;;;;;;;3.05;2.85;;;;;;;;;;5014336;28;20027;-54
2023/05/06 07:04:54;;;;;;;3.38;3.08;;;;;;;;;;5014218;28;20408;-54
2023/05/06 07:07:20;;;;;;;4.97;3.00;;;;;;;;;;5013855;28;20034;-54
2023/05/06 07:09:45;;;;;;;3.28;3.08;;;;;;;;;;5013937;28;20026;-54
2023/05/06 07:12:11;;;;;;;3.70;3.20;;;;;;;;;;5013847;28;20034;-54
2023/05/06 07:14:36;;;;;;;5.38;4.00;;;;;;;;;;4996994;28;20034;-54
2023/05/06 07:17:01;;;;;;;3.00;2.80;;;;;;;;;;5014362;28;20037;-54
2023/05/06 07:19:27;;;;;;;3.30;3.00;;;;;;;;;;4996847;28;20034;-54
2023/05/06 07:21:53;;;;;;;8.32;5.00;;;;;;;;;;5014099;28;20057;-54
2023/05/06 07:24:18;;;;;;;9.85;5.85;;;;;;;;;;5014266;28;20034;-55
2023/05/06 07:26:44;;;;;;;4.38;2.85;;;;;;;;;;5017681;28;20411;-54
2023/05/06 07:29:09;;;;;;;6.72;4.50;;;;;;;;;;5017981;28;20472;-54
2023/05/06 07:31:34;;;;;;;4.03;3.63;;;;;;;;;;4996673;28;20052;-53
2023/05/06 07:34:00;;;;;;;4.30;2.42;;;;;;;;;;5013745;28;20030;-54
2023/05/06 07:36:26;;;;;;;2.97;2.70;;;;;;;;;;5013461;28;20480;-54
2023/05/06 07:38:51;;;;;;;5.20;2.38;;;;;;;;;;5013705;28;20030;-54
2023/05/06 07:41:16;;;;;;;3.50;3.22;;;;;;;;;;5013953;28;20122;-54
2023/05/06 07:43:42;;;;;;;10.02;4.53;;;;;;;;;;5013463;28;20046;-54
2023/05/06 07:46:07;;;;;;;3.97;2.95;;;;;;;;;;5014143;28;20033;-54
2023/05/06 07:48:32;;;;;;;6.03;2.95;;;;;;;;;;5014030;28;20433;-54
2023/05/06 07:50:58;;;;;;;4.18;2.90;;;;;;;;;;4996199;28;20121;-54
2023/05/06 07:53:24;;;;;;;5.10;3.47;;;;;;;;;;5013906;28;20355;-54
2023/05/06 07:55:51;;;;;;;5.25;3.25;;;;;;;;;;5013531;28;20412;-53
2023/05/06 07:58:17;;;;;;;3.65;3.10;;;;;;;;;;5013796;28;20034;-53
2023/05/06 08:00:42;;;;;;;6.18;4.20;;;;;;;;;;5013545;28;20026;-53
2023/05/06 08:03:07;;;;;;;4.50;3.83;;;;;;;;;;5013873;28;20030;-54
2023/05/06 08:05:33;;;;;;;4.63;3.35;;;;;;;;;;5015672;28;20075;-54
2023/05/06 08:07:59;;;;;;;5.82;4.40;;;;;;;;;;5033500;28;20040;-60
2023/05/06 08:10:24;;;;;;;6.95;3.90;;;;;;;;;;5033416;28;20359;-61
2023/05/06 08:12:49;;;;;;;4.55;4.15;;;;;;;;;;5015723;28;20037;-60
2023/05/06 08:15:15;;;;;;;7.88;4.50;;;;;;;;;;5033138;28;20048;-61
2023/05/06 08:17:42;;;;;;;4.53;4.13;;;;;;;;;;5033099;28;20491;-54
2023/05/06 08:20:08;;;;;;;7.88;5.82;;;;;;;;;;5031470;28;20041;-54
2023/05/06 08:22:33;;;;;;;7.72;6.93;;;;;;;;;;5012950;28;20030;-60
2023/05/06 08:24:59;;;;;;;7.15;4.70;;;;;;;;;;5013616;28;20033;-61
2023/05/06 08:27:26;;;;;;;6.68;4.82;;;;;;;;;;5013609;28;20010;-54
2023/05/06 08:29:51;;;;;;;6.25;4.97;;;;;;;;;;5013572;28;20034;-54
2023/05/06 08:32:17;;;;;;;7.78;5.53;;;;;;;;;;5013514;28;20036;-54
2023/05/06 08:34:42;;;;;;;4.47;4.00;;;;;;;;;;5012516;28;20029;-54
2023/05/06 08:37:09;;;;;;;6.93;5.25;;;;;;;;;;5013492;28;20389;-54
2023/05/06 08:39:35;;;;;;;8.77;5.68;;;;;;;;;;5013455;28;20026;-54
2023/05/06 08:42:01;;;;;;;6.90;3.58;;;;;;;;;;5013430;28;20022;-54
2023/05/06 08:44:27;;;;;;;5.97;5.35;;;;;;;;;;4995915;28;20457;-54
2023/05/06 08:46:52;;;;;;;9.00;4.90;;;;;;;;;;5017407;28;20100;-54
2023/05/06 08:49:18;;;;;;;6.03;4.63;;;;;;;;;;4999753;28;20030;-54
2023/05/06 08:51:44;;;;;;;6.47;5.05;;;;;;;;;;5017067;28;20507;-54
2023/05/06 08:54:10;;;;;;;7.82;6.03;;;;;;;;;;5017225;28;20040;-54
2023/05/06 08:56:37;;;;;;;7.20;5.88;;;;;;;;;;5017115;28;20030;-54
2023/05/06 08:59:03;;;;;;;9.50;5.95;;;;;;;;;;5017056;28;20032;-54
2023/05/06 09:01:28;;;;;;;12.52;6.50;;;;;;;;;;5016756;28;20022;-54
2023/05/06 09:03:58;;;;;;;9.65;6.10;;;;;;;;;;5016747;28;20033;-54
2023/05/06 09:06:24;;;;;;;8.55;5.70;;;;;;;;;;5017098;28;20441;-54
2023/05/06 09:08:49;;;;;;;9.88;6.55;;;;;;;;;;5016463;28;20037;-54
2023/05/06 09:11:41;;;;;;;14.18;7.97;;;;;;;;;;5016610;28;20040;-54
2023/05/06 09:14:14;;;;;;;8.80;6.15;;;;;;;;;;5012869;28;20046;-54
2023/05/06 09:16:44;;;;;;;8.00;5.65;;;;;;;;;;5016726;28;20026;-54
2023/05/06 09:19:09;;;;;;;6.43;4.60;;;;;;;;;;5016915;28;20030;-54
2023/05/06 09:21:35;;;;;;;14.00;7.85;;;;;;;;;;5016663;28;20053;-55
2023/05/06 09:24:01;;;;;;;9.55;7.88;;;;;;;;;;4999087;28;20069;-53
2023/05/06 09:26:31;;;;;;;4.88;4.38;;;;;;;;;;5016367;28;20034;-54
2023/05/06 09:28:57;;;;;;;8.85;6.68;;;;;;;;;;5016583;28;20029;-55
2023/05/06 09:31:23;;;;;;;11.43;6.43;;;;;;;;;;5016256;28;20038;-57
2023/05/06 09:33:48;;;;;;;9.68;5.65;;;;;;;;;;5016407;28;20057;-55
2023/05/06 09:36:14;;;;;;;6.72;6.13;;;;;;;;;;5019809;28;20107;-57
2023/05/06 09:38:40;;;;;;;7.30;5.72;;;;;;;;;;5018512;28;20037;-55
2023/05/06 09:41:06;;;;;;;10.30;5.30;;;;;;;;;;5035773;28;20032;-55
2023/05/06 09:43:31;;;;;;;5.45;4.95;;;;;;;;;;5035406;28;20021;-54
2023/05/06 09:45:57;;;;;;;6.78;5.68;;;;;;;;;;5035378;28;20034;-54
2023/05/06 09:48:22;;;;;;;5.28;4.88;;;;;;;;;;5035728;28;20030;-54
2023/05/06 09:50:48;;;;;;;7.75;5.97;;;;;;;;;;5035557;28;20045;-54
2023/05/06 09:53:16;;;;;;;7.78;6.00;;;;;;;;;;5035403;28;20048;-54
2023/05/06 09:55:42;;;;;;;11.73;5.53;;;;;;;;;;5035565;28;20084;-55
2023/05/06 09:58:08;;;;;;;7.57;5.47;;;;;;;;;;5026673;28;20022;-54
2023/05/06 10:00:33;;;;;;;6.68;5.65;;;;;;;;;;5015751;28;20368;-54
2023/05/06 10:02:59;;;;;;;5.55;5.05;;;;;;;;;;5014247;28;20364;-54
2023/05/06 10:05:25;;;;;;;7.03;5.15;;;;;;;;;;5015071;28;20030;-55
2023/05/06 10:07:52;;;;;;;8.70;5.38;;;;;;;;;;5010517;28;20050;-54
2023/05/06 10:10:17;;;;;;;7.10;5.10;;;;;;;;;;5013021;28;20030;-53
2023/05/06 10:12:44;;;;;;;4.72;4.35;;;;;;;;;;5012192;28;20034;-54
2023/05/06 10:15:09;;;;;;;5.88;3.75;;;;;;;;;;5012252;28;20519;-54
2023/05/06 10:17:37;;;;;;;5.10;4.60;;;;;;;;;;5012315;28;20038;-54
2023/05/06 10:20:06;;;;;;;5.97;4.25;;;;;;;;;;5011282;28;20034;-54
2023/05/06 10:22:38;;;;;;;6.10;4.63;;;;;;;;;;5012152;28;20030;-54
2023/05/06 10:25:15;;;;;;;6.85;4.38;;;;;;;;;;5011882;28;20117;-54
2023/05/06 10:27:43;;;;;;;6.43;4.75;;;;;;;;;;5012371;28;20437;-54
2023/05/06 10:30:09;;;;;;;5.68;4.47;;;;;;;;;;5012642;28;20061;-54
2023/05/06 10:32:36;;;;;;;7.05;5.25;;;;;;;;;;5011663;28;20072;-54
2023/05/06 10:35:08;;;;;;;5.90;4.82;;;;;;;;;;5011795;28;20084;-54
2023/05/06 10:37:34;;;;;;;8.25;5.40;;;;;;;;;;5012152;28;20029;-54
2023/05/06 10:40:00;;;;;;;12.48;7.85;;;;;;;;;;5012249;28;20463;-54
2023/05/06 10:42:29;;;;;;;9.13;7.35;;;;;;;;;;5011797;28;20028;-54
2023/05/06 10:44:55;;;;;;;9.18;7.03;;;;;;;;;;5012052;28;20037;-54
2023/05/06 10:47:21;;;;;;;9.40;8.02;;;;;;;;;;5012025;28;20066;-54
2023/05/06 10:50:05;;;;;;;12.43;8.00;;;;;;;;;;5011971;28;20074;-54
2023/05/06 10:52:50;;;;;;;8.98;6.65;;;;;;;;;;4993033;28;20030;-53
2023/05/06 10:55:32;;;;;;;6.43;5.68;;;;;;;;;;5011879;28;20026;-54
2023/05/06 10:58:13;;;;;;;7.03;5.75;;;;;;;;;;5011860;28;20025;-54
2023/05/06 11:00:39;;;;;;;7.22;6.43;;;;;;;;;;5011797;28;20361;-54
2023/05/06 11:03:13;;;;;;;7.32;6.15;;;;;;;;;;5011551;28;20034;-54
2023/05/06 11:05:46;;;;;;;6.65;5.50;;;;;;;;;;5011020;28;20145;-54
2023/05/06 11:08:12;;;;;;;6.50;5.10;;;;;;;;;;5010866;28;20045;-54
2023/05/06 11:10:37;;;;;;;6.95;4.72;;;;;;;;;;5011242;28;20037;-54
2023/05/06 11:13:19;;;;;;;7.75;6.10;;;;;;;;;;5011354;28;20423;-54
2023/05/06 11:15:45;;;;;;;8.30;6.13;;;;;;;;;;5011127;28;20037;-54
2023/05/06 11:18:36;;;;;;;277.83;242.70;;;;;;;;;;5011432;28;20108;-54
2023/05/06 11:21:06;;;;;;;152.65;135.93;;;;;;;;;;4990927;28;20687;-54
2023/05/06 11:23:40;;;;;;;92.53;83.53;;;;;;;;;;5011061;28;20073;-54
2023/05/06 11:26:06;;;;;;;20.15;18.05;;;;;;;;;;5011103;28;20068;-54
2023/05/06 11:28:32;;;;;;;25.23;22.75;;;;;;;;;;5011242;28;20107;-54
2023/05/06 11:30:58;;;;;;;23.90;21.40;;;;;;;;;;5011139;28;20037;-54
2023/05/06 11:33:25;;;;;;;22.50;20.23;;;;;;;;;;5011161;28;20026;-53
2023/05/06 11:35:52;;;;;;;11.75;8.50;;;;;;;;;;5010891;28;20112;-54
2023/05/06 11:38:17;;;;;;;25.30;22.33;;;;;;;;;;5011193;28;20034;-54
2023/05/06 11:40:42;;;;;;;17.10;14.32;;;;;;;;;;5011178;28;20022;-54
2023/05/06 11:43:14;;;;;;;14.70;13.20;;;;;;;;;;5011084;28;20029;-54
2023/05/06 11:45:43;;;;;;;14.20;11.82;;;;;;;;;;5010965;28;20045;-54
2023/05/06 11:48:15;;;;;;;13.15;9.95;;;;;;;;;;5010536;28;20115;-54
2023/05/06 11:50:46;;;;;;;13.63;9.18;;;;;;;;;;5010908;28;20132;-54
2023/05/06 11:53:19;;;;;;;13.02;7.80;;;;;;;;;;5010422;28;20049;-54
2023/05/06 11:55:45;;;;;;;8.95;7.55;;;;;;;;;;5010789;28;20120;-54
2023/05/06 11:58:13;;;;;;;10.48;8.90;;;;;;;;;;5010873;28;20046;-54
2023/05/06 12:00:44;;;;;;;9.82;8.82;;;;;;;;;;5011052;28;20037;-54
2023/05/06 12:03:13;;;;;;;11.38;8.23;;;;;;;;;;4993416;28;20044;-54
2023/05/06 12:05:40;;;;;;;8.63;7.35;;;;;;;;;;5010660;28;20049;-53
2023/05/06 12:08:06;;;;;;;12.70;9.77;;;;;;;;;;5009717;28;20121;-54
2023/05/06 12:10:31;;;;;;;12.45;9.90;;;;;;;;;;5010043;28;20116;-54
2023/05/06 12:12:56;;;;;;;10.55;8.13;;;;;;;;;;5010471;28;20471;-54
2023/05/06 12:15:22;;;;;;;9.25;8.30;;;;;;;;;;5010357;28;20669;-54
2023/05/06 12:17:47;;;;;;;11.65;8.70;;;;;;;;;;5010767;28;20468;-54
2023/05/06 12:20:13;;;;;;;13.00;8.73;;;;;;;;;;4993164;28;20034;-54
2023/05/06 12:22:39;;;;;;;9.80;8.40;;;;;;;;;;5010356;28;20022;-54
2023/05/06 12:25:13;;;;;;;9.07;7.13;;;;;;;;;;5010169;28;20798;-54
2023/05/06 12:27:39;;;;;;;16.55;11.00;;;;;;;;;;5010386;28;20034;-54
2023/05/06 12:30:07;;;;;;;14.95;9.18;;;;;;;;;;5010194;28;20120;-54
2023/05/06 12:32:33;;;;;;;13.82;10.35;;;;;;;;;;5010689;28;20026;-53
2023/05/06 12:35:04;;;;;;;8.93;8.02;;;;;;;;;;4992628;28;20805;-54
2023/05/06 12:37:29;;;;;;;9.40;7.93;;;;;;;;;;4992944;28;20048;-53
2023/05/06 12:39:55;;;;;;;10.32;7.70;;;;;;;;;;5010007;28;20516;-54
2023/05/06 12:42:20;;;;;;;8.68;7.18;;;;;;;;;;5009389;28;20502;-54
2023/05/06 12:44:46;;;;;;;10.32;7.80;;;;;;;;;;5009010;28;20069;-54
2023/05/06 12:47:19;;;;;;;11.23;8.65;;;;;;;;;;5009628;28;20038;-53
2023/05/06 12:49:48;;;;;;;10.18;8.20;;;;;;;;;;5009833;28;20044;-54
2023/05/06 12:52:14;;;;;;;9.13;8.20;;;;;;;;;;5009871;28;20034;-54
2023/05/06 12:54:40;;;;;;;13.38;11.52;;;;;;;;;;5009639;28;20124;-54
2023/05/06 12:57:05;;;;;;;17.60;12.68;;;;;;;;;;5010358;28;20120;-54
2023/05/06 12:59:31;;;;;;;14.57;11.18;;;;;;;;;;5010351;28;20042;-54
2023/05/06 13:01:56;;;;;;;21.25;15.25;;;;;;;;;;5010205;28;20030;-53
2023/05/06 13:04:22;;;;;;;13.23;11.63;;;;;;;;;;5009653;28;20548;-54
2023/05/06 13:06:48;;;;;;;13.52;8.90;;;;;;;;;;5010087;28;20045;-53
2023/05/06 13:09:14;;;;;;;16.83;13.52;;;;;;;;;;4992255;28;20439;-54
2023/05/06 13:11:39;;;;;;;10.75;8.38;;;;;;;;;;5009679;28;20034;-54
2023/05/06 13:14:04;;;;;;;9.32;7.97;;;;;;;;;;4992579;28;20026;-54
2023/05/06 13:16:30;;;;;;;9.13;8.27;;;;;;;;;;5009967;28;20551;-53
2023/05/06 13:18:56;;;;;;;6.30;5.80;;;;;;;;;;5010236;28;20356;-54
2023/05/06 13:21:22;;;;;;;7.93;6.97;;;;;;;;;;5010078;28;20038;-54
2023/05/06 13:23:47;;;;;;;6.25;5.65;;;;;;;;;;5009021;28;20049;-54
2023/05/06 13:26:13;;;;;;;7.47;6.70;;;;;;;;;;5010008;28;20022;-53
2023/05/06 13:28:39;;;;;;;5.63;5.03;;;;;;;;;;5010008;28;20037;-54
2023/05/06 13:31:05;;;;;;;6.28;5.85;;;;;;;;;;5010890;28;20041;-54
2023/05/06 13:33:30;;;;;;;9.45;8.55;;;;;;;;;;5013031;28;20088;-54
2023/05/06 13:35:56;;;;;;;15.15;12.13;;;;;;;;;;5013207;28;20041;-54
2023/05/06 13:38:21;;;;;;;14.05;11.57;;;;;;;;;;5013454;28;20034;-54
2023/05/06 13:40:49;;;;;;;16.33;12.68;;;;;;;;;;5013367;28;20041;-54
2023/05/06 13:43:14;;;;;;;13.23;11.95;;;;;;;;;;5013022;28;20559;-54
2023/05/06 13:45:39;;;;;;;11.55;10.52;;;;;;;;;;5013214;28;20112;-54
2023/05/06 13:48:05;;;;;;;11.52;9.07;;;;;;;;;;5012876;28;20061;-54
2023/05/06 13:50:30;;;;;;;10.07;9.18;;;;;;;;;;5012876;28;20125;-54
2023/05/06 13:52:55;;;;;;;11.05;9.95;;;;;;;;;;5012091;28;20061;-54
2023/05/06 13:55:21;;;;;;;12.00;10.52;;;;;;;;;;5012670;28;20531;-53
2023/05/06 13:57:46;;;;;;;11.50;10.38;;;;;;;;;;5012657;28;20026;-54
2023/05/06 14:00:12;;;;;;;13.32;11.98;;;;;;;;;;5012175;28;20443;-54
2023/05/06 14:02:37;;;;;;;13.60;11.65;;;;;;;;;;5012327;28;20032;-54
2023/05/06 14:05:03;;;;;;;10.98;9.70;;;;;;;;;;5011121;28;20029;-53
2023/05/06 14:07:28;;;;;;;11.82;10.63;;;;;;;;;;5012393;28;20648;-54
2023/05/06 14:09:53;;;;;;;12.10;10.95;;;;;;;;;;5012424;28;20034;-54
2023/05/06 14:12:21;;;;;;;12.73;11.43;;;;;;;;;;4995084;28;20029;-54
2023/05/06 14:14:47;;;;;;;12.85;11.55;;;;;;;;;;5012461;28;20122;-54
2023/05/06 14:17:12;;;;;;;11.73;10.55;;;;;;;;;;5012092;28;20514;-54
2023/05/06 14:19:37;;;;;;;14.57;11.07;;;;;;;;;;5012604;28;20026;-54
2023/05/06 14:22:03;;;;;;;15.43;11.93;;;;;;;;;;5012546;28;20443;-54
2023/05/06 14:24:28;;;;;;;10.05;8.93;;;;;;;;;;5012410;28;20103;-54
2023/05/06 14:26:53;;;;;;;10.50;9.40;;;;;;;;;;5012594;28;20088;-54
2023/05/06 14:29:19;;;;;;;10.75;9.68;;;;;;;;;;5012570;28;20030;-54
2023/05/06 14:31:44;;;;;;;9.60;8.60;;;;;;;;;;5012488;28;20061;-54
2023/05/06 14:34:10;;;;;;;11.38;10.27;;;;;;;;;;5011620;28;20065;-54
2023/05/06 14:36:35;;;;;;;12.75;9.98;;;;;;;;;;5012537;28;20018;-53